AFL2344 UUEE-EDDC
Flight info
| Callsign | AFL2344 |
|---|---|
| Flight time | N/A |
| Altitude | 36000 |
| Route | LIDRI3H LIDRI T781 REPNU N858 BENIM L29 LAFAT DCT BILDI DCT VABER L29 SUWGI L735 OLBIK M748 OSKAN OSKAN4A |
| Aircraft | A320/M-SDE3FGHIRWY/LB1 |
Departure
| Time | 2026-05-05 10:25 |
|---|---|
| Airport | Sheremetyevo International Airport (UUEE) |
Arrival
| Time | N/A |
|---|---|
| Airport | Dresden Airport (EDDC) |
| Time | Latitude | Longitude | Altitude | Speed | Heading |
|---|---|---|---|---|---|
| 2026-05-05 09:56 | 55.97926 | 37.41201 | 639 ft | 0 kts | 255° |
| 2026-05-05 10:16 | 55.97926 | 37.41203 | 639 ft | 1 kts | 255° |
| 2026-05-05 10:16 | 55.97930 | 37.41230 | 643 ft | 3 kts | 253° |
| 2026-05-05 10:16 | 55.97936 | 37.41264 | 645 ft | 3 kts | 250° |
| 2026-05-05 10:16 | 55.97944 | 37.41298 | 642 ft | 3 kts | 243° |
| 2026-05-05 10:17 | 55.97953 | 37.41327 | 640 ft | 3 kts | 226° |
| 2026-05-05 10:17 | 55.97966 | 37.41345 | 641 ft | 2 kts | 177° |
| 2026-05-05 10:17 | 55.97971 | 37.41344 | 641 ft | 0 kts | 165° |
| 2026-05-05 10:18 | 55.97958 | 37.41351 | 649 ft | 8 kts | 165° |
| 2026-05-05 10:19 | 55.97895 | 37.41380 | 639 ft | 11 kts | 165° |
| 2026-05-05 10:19 | 55.97815 | 37.41419 | 639 ft | 13 kts | 165° |
| 2026-05-05 10:19 | 55.97732 | 37.41458 | 646 ft | 8 kts | 165° |
| 2026-05-05 10:19 | 55.97678 | 37.41519 | 639 ft | 11 kts | 108° |
| 2026-05-05 10:20 | 55.97637 | 37.41599 | 639 ft | 9 kts | 162° |
| 2026-05-05 10:20 | 55.97611 | 37.41689 | 639 ft | 10 kts | 83° |
| 2026-05-05 10:20 | 55.97627 | 37.41803 | 639 ft | 9 kts | 75° |
| 2026-05-05 10:20 | 55.97644 | 37.41917 | 640 ft | 10 kts | 75° |
| 2026-05-05 10:21 | 55.97664 | 37.42048 | 644 ft | 12 kts | 75° |
| 2026-05-05 10:21 | 55.97685 | 37.42183 | 639 ft | 13 kts | 76° |
| 2026-05-05 10:21 | 55.97708 | 37.42340 | 645 ft | 13 kts | 75° |
| 2026-05-05 10:21 | 55.97730 | 37.42486 | 640 ft | 12 kts | 75° |
| 2026-05-05 10:22 | 55.97749 | 37.42616 | 643 ft | 10 kts | 75° |
| 2026-05-05 10:22 | 55.97762 | 37.42741 | 647 ft | 10 kts | 98° |
| 2026-05-05 10:22 | 55.97713 | 37.42804 | 639 ft | 3 kts | 166° |
| 2026-05-05 10:23 | 55.97704 | 37.42808 | 639 ft | 5 kts | 166° |
| 2026-05-05 10:23 | 55.97673 | 37.42824 | 638 ft | 5 kts | 163° |
| 2026-05-05 10:23 | 55.97624 | 37.42826 | 642 ft | 8 kts | 199° |
| 2026-05-05 10:23 | 55.97591 | 37.42744 | 640 ft | 8 kts | 254° |
| 2026-05-05 10:24 | 55.97566 | 37.42577 | 640 ft | 35 kts | 255° |
| 2026-05-05 10:24 | 55.97442 | 37.41737 | 640 ft | 101 kts | 256° |
| 2026-05-05 10:24 | 55.97214 | 37.40218 | 646 ft | 150 kts | 255° |
| 2026-05-05 10:24 | 55.96949 | 37.38313 | 1094 ft | 158 kts | 253° |
| 2026-05-05 10:25 | 55.96661 | 37.36440 | 1765 ft | 158 kts | 252° |
| 2026-05-05 10:25 | 55.96358 | 37.34569 | 2424 ft | 159 kts | 254° |
| 2026-05-05 10:25 | 55.96030 | 37.32525 | 2814 ft | 182 kts | 254° |
| 2026-05-05 10:25 | 55.95663 | 37.30233 | 3223 ft | 206 kts | 252° |
| 2026-05-05 10:26 | 55.95244 | 37.27619 | 3616 ft | 230 kts | 253° |
| 2026-05-05 10:26 | 55.94790 | 37.24770 | 4254 ft | 244 kts | 255° |
| 2026-05-05 10:26 | 55.94323 | 37.21819 | 5137 ft | 248 kts | 254° |
| 2026-05-05 10:26 | 55.93856 | 37.18875 | 6080 ft | 249 kts | 255° |
| 2026-05-05 10:27 | 55.93383 | 37.15891 | 7002 ft | 249 kts | 255° |
| 2026-05-05 10:27 | 55.92906 | 37.12894 | 7848 ft | 252 kts | 256° |
| 2026-05-05 10:27 | 55.92425 | 37.09857 | 8699 ft | 255 kts | 256° |
| 2026-05-05 10:27 | 55.91950 | 37.06849 | 9520 ft | 259 kts | 256° |
| 2026-05-05 10:28 | 55.91458 | 37.03733 | 9785 ft | 260 kts | 256° |
| 2026-05-05 10:28 | 55.91057 | 37.00595 | 9854 ft | 258 kts | 264° |
| 2026-05-05 10:28 | 55.91012 | 36.97398 | 9861 ft | 258 kts | 271° |
| 2026-05-05 10:28 | 55.91050 | 36.94198 | 9863 ft | 257 kts | 270° |
| 2026-05-05 10:29 | 55.91080 | 36.91005 | 9859 ft | 257 kts | 270° |
| 2026-05-05 10:29 | 55.91105 | 36.87807 | 9863 ft | 258 kts | 270° |
| 2026-05-05 10:29 | 55.91131 | 36.84607 | 9858 ft | 258 kts | 270° |
| 2026-05-05 10:29 | 55.91158 | 36.81450 | 9859 ft | 259 kts | 270° |
| 2026-05-05 10:30 | 55.91188 | 36.78242 | 9859 ft | 258 kts | 270° |
| 2026-05-05 10:30 | 55.91096 | 36.75040 | 9863 ft | 259 kts | 260° |
| 2026-05-05 10:30 | 55.90661 | 36.71842 | 10237 ft | 273 kts | 257° |
| 2026-05-05 10:30 | 55.90188 | 36.68465 | 10478 ft | 296 kts | 257° |
| 2026-05-05 10:31 | 55.89670 | 36.64755 | 10672 ft | 319 kts | 257° |
| 2026-05-05 10:31 | 55.89120 | 36.60837 | 11126 ft | 330 kts | 257° |
| 2026-05-05 10:31 | 55.88560 | 36.56869 | 11780 ft | 334 kts | 257° |
| 2026-05-05 10:31 | 55.87986 | 36.52817 | 12481 ft | 338 kts | 256° |
| 2026-05-05 10:32 | 55.87406 | 36.48722 | 13162 ft | 342 kts | 256° |
| 2026-05-05 10:32 | 55.86821 | 36.44584 | 13808 ft | 346 kts | 257° |
| 2026-05-05 10:32 | 55.86267 | 36.40378 | 14406 ft | 350 kts | 258° |
| 2026-05-05 10:32 | 55.85750 | 36.36175 | 15005 ft | 353 kts | 258° |
| 2026-05-05 10:33 | 55.85237 | 36.31878 | 15615 ft | 356 kts | 258° |
| 2026-05-05 10:33 | 55.84723 | 36.27542 | 16213 ft | 359 kts | 258° |
| 2026-05-05 10:33 | 55.84201 | 36.23170 | 16798 ft | 362 kts | 258° |
| 2026-05-05 10:33 | 55.83667 | 36.18762 | 17373 ft | 365 kts | 258° |
| 2026-05-05 10:34 | 55.83123 | 36.14334 | 17932 ft | 368 kts | 258° |
| 2026-05-05 10:34 | 55.82567 | 36.09874 | 18455 ft | 370 kts | 257° |
| 2026-05-05 10:34 | 55.82001 | 36.05382 | 18944 ft | 373 kts | 257° |
| 2026-05-05 10:34 | 55.81437 | 36.00926 | 19423 ft | 375 kts | 257° |
| 2026-05-05 10:35 | 55.80859 | 35.96364 | 19922 ft | 377 kts | 257° |
| 2026-05-05 10:35 | 55.80278 | 35.91800 | 20393 ft | 380 kts | 257° |
| 2026-05-05 10:35 | 55.79688 | 35.87203 | 20863 ft | 382 kts | 257° |
| 2026-05-05 10:35 | 55.79092 | 35.82572 | 21331 ft | 384 kts | 257° |
| 2026-05-05 10:36 | 55.78492 | 35.77929 | 21789 ft | 387 kts | 257° |
| 2026-05-05 10:36 | 55.77893 | 35.73304 | 22243 ft | 389 kts | 257° |
| 2026-05-05 10:36 | 55.77279 | 35.68583 | 22704 ft | 391 kts | 257° |
| 2026-05-05 10:36 | 55.76663 | 35.63852 | 23137 ft | 393 kts | 257° |
| 2026-05-05 10:37 | 55.76041 | 35.59091 | 23539 ft | 396 kts | 257° |
| 2026-05-05 10:37 | 55.75456 | 35.54369 | 23888 ft | 397 kts | 261° |
| 2026-05-05 10:37 | 55.75180 | 35.49467 | 24255 ft | 399 kts | 265° |
| 2026-05-05 10:37 | 55.74973 | 35.44532 | 24625 ft | 400 kts | 265° |
| 2026-05-05 10:38 | 55.74763 | 35.39574 | 24984 ft | 402 kts | 265° |
| 2026-05-05 10:38 | 55.74549 | 35.34602 | 25339 ft | 404 kts | 265° |
| 2026-05-05 10:38 | 55.74333 | 35.29676 | 25691 ft | 405 kts | 265° |
| 2026-05-05 10:38 | 55.74109 | 35.24672 | 26029 ft | 407 kts | 265° |
| 2026-05-05 10:39 | 55.73882 | 35.19646 | 26359 ft | 408 kts | 265° |
| 2026-05-05 10:39 | 55.73650 | 35.14602 | 26679 ft | 410 kts | 265° |
| 2026-05-05 10:39 | 55.73418 | 35.09596 | 26995 ft | 411 kts | 265° |
| 2026-05-05 10:39 | 55.73180 | 35.04519 | 27309 ft | 413 kts | 265° |
| 2026-05-05 10:40 | 55.72946 | 34.99418 | 27614 ft | 414 kts | 265° |
| 2026-05-05 10:40 | 55.72713 | 34.94278 | 27924 ft | 416 kts | 265° |
| 2026-05-05 10:40 | 55.72478 | 34.89149 | 28255 ft | 416 kts | 265° |
| 2026-05-05 10:40 | 55.72245 | 34.84104 | 28689 ft | 415 kts | 265° |
| 2026-05-05 10:41 | 55.72006 | 34.78980 | 29138 ft | 413 kts | 265° |
| 2026-05-05 10:41 | 55.71765 | 34.73908 | 29583 ft | 411 kts | 265° |
| 2026-05-05 10:41 | 55.71519 | 34.68845 | 30013 ft | 410 kts | 265° |
| 2026-05-05 10:41 | 55.71276 | 34.63883 | 30373 ft | 408 kts | 265° |
| 2026-05-05 10:42 | 55.70076 | 34.54057 | 31056 ft | 407 kts | 251° |
| 2026-05-05 10:42 | 55.69099 | 34.49337 | 31393 ft | 407 kts | 251° |
| 2026-05-05 10:42 | 55.68136 | 34.44678 | 31725 ft | 406 kts | 251° |
| 2026-05-05 10:43 | 55.67164 | 34.39967 | 32057 ft | 405 kts | 251° |
| 2026-05-05 10:43 | 55.66193 | 34.35273 | 32397 ft | 405 kts | 251° |
| 2026-05-05 10:43 | 55.65223 | 34.30593 | 32741 ft | 404 kts | 251° |
| 2026-05-05 10:43 | 55.64265 | 34.25979 | 33062 ft | 403 kts | 251° |
| 2026-05-05 10:44 | 55.63293 | 34.21300 | 33394 ft | 403 kts | 251° |
| 2026-05-05 10:44 | 55.62319 | 34.16627 | 33708 ft | 403 kts | 252° |